createdAt,value
2022-10-05T00:01:42.852Z,2.00
2022-10-05T00:04:22.547Z,2.10
2022-10-05T00:07:08.388Z,1.90
2022-10-05T00:09:36.681Z,2.17
2022-10-05T00:12:21.776Z,2.33
2022-10-05T00:14:52.414Z,2.30
2022-10-05T00:17:25.856Z,2.20
2022-10-05T00:20:03.482Z,2.30
2022-10-05T00:22:52.255Z,2.67
2022-10-05T00:25:30.721Z,2.50
2022-10-05T00:28:02.202Z,2.20
2022-10-05T00:30:35.986Z,2.50
2022-10-05T00:33:05.271Z,2.50
2022-10-05T00:35:39.418Z,2.23
2022-10-05T00:38:15.491Z,2.40
2022-10-05T00:40:58.671Z,2.27
2022-10-05T00:44:16.087Z,1.97
2022-10-05T00:47:04.599Z,2.20
2022-10-05T00:50:06.155Z,2.00
2022-10-05T00:52:55.256Z,2.40
2022-10-05T00:55:56.857Z,2.30
2022-10-05T00:58:48.396Z,2.60
2022-10-05T01:01:58.921Z,2.10
2022-10-05T01:04:57.777Z,2.33
2022-10-05T01:07:47.778Z,2.30
2022-10-05T01:11:12.697Z,2.60
2022-10-05T01:13:49.040Z,2.13
2022-10-05T01:16:41.933Z,2.43
2022-10-05T01:19:54.498Z,2.60
2022-10-05T01:22:59.831Z,2.07
2022-10-05T01:25:48.611Z,1.93
2022-10-05T01:29:06.995Z,2.20
2022-10-05T01:31:52.577Z,2.47
2022-10-05T01:34:51.147Z,2.10
2022-10-05T01:37:24.214Z,2.70
2022-10-05T01:40:09.325Z,2.00
2022-10-05T01:42:42.181Z,2.27
2022-10-05T01:45:19.265Z,2.27
2022-10-05T01:47:54.059Z,2.80
2022-10-05T01:50:27.139Z,2.30
2022-10-05T01:53:19.748Z,2.13
2022-10-05T01:56:06.271Z,2.30
2022-10-05T01:58:43.480Z,3.07
2022-10-05T02:01:25.613Z,2.40
2022-10-05T02:04:37.290Z,2.30
2022-10-05T02:07:14.014Z,2.30
2022-10-05T02:09:55.670Z,2.60
2022-10-05T02:12:25.416Z,2.57
2022-10-05T02:14:58.935Z,2.83
2022-10-05T02:17:38.865Z,2.50
2022-10-05T02:20:11.734Z,2.67
2022-10-05T02:22:45.165Z,3.13
2022-10-05T02:25:27.590Z,2.80
2022-10-05T02:28:15.533Z,3.20
2022-10-05T02:30:54.389Z,2.87
2022-10-05T02:33:30.096Z,3.10
2022-10-05T02:36:14.841Z,3.10
2022-10-05T02:38:59.735Z,3.50
2022-10-05T02:41:32.880Z,3.70
2022-10-05T02:44:21.635Z,3.53
2022-10-05T02:47:21.477Z,3.53
2022-10-05T02:50:20.190Z,3.50
2022-10-05T02:53:06.145Z,3.30
2022-10-05T02:55:42.616Z,3.47
2022-10-05T02:58:16.814Z,3.40
2022-10-05T03:01:11.989Z,3.53
2022-10-05T03:04:16.560Z,3.30
2022-10-05T03:07:06.701Z,3.20
2022-10-05T03:09:42.354Z,3.40
2022-10-05T03:12:44.710Z,3.40
2022-10-05T03:15:42.402Z,3.83
2022-10-05T03:18:28.548Z,3.73
2022-10-05T03:21:15.280Z,3.47
2022-10-05T03:24:03.813Z,4.17
2022-10-05T03:26:43.095Z,3.87
2022-10-05T03:29:19.465Z,3.53
2022-10-05T03:32:13.085Z,3.80
2022-10-05T03:34:54.236Z,3.67
2022-10-05T03:37:29.515Z,3.90
2022-10-05T03:40:29.720Z,3.77
2022-10-05T03:43:38.046Z,3.70
2022-10-05T03:46:14.149Z,4.53
2022-10-05T03:49:25.646Z,4.27
2022-10-05T03:52:09.355Z,4.40
2022-10-05T03:54:45.296Z,3.70
2022-10-05T03:57:19.682Z,4.30
2022-10-05T04:00:14.194Z,4.07
2022-10-05T04:02:49.988Z,3.70
2022-10-05T04:05:58.827Z,4.03
2022-10-05T04:08:32.854Z,3.57
2022-10-05T04:11:10.014Z,3.70
2022-10-05T04:13:52.192Z,3.70
2022-10-05T04:16:40.654Z,4.13
2022-10-05T04:19:21.935Z,4.03
2022-10-05T04:21:56.334Z,3.70
2022-10-05T04:24:32.915Z,3.80
2022-10-05T04:27:10.861Z,3.73
2022-10-05T04:30:05.381Z,3.80
2022-10-05T04:32:48.816Z,3.53
2022-10-05T04:35:40.286Z,4.17
2022-10-05T04:38:26.136Z,4.10
2022-10-05T04:40:58.941Z,4.63
2022-10-05T04:43:34.815Z,4.17
2022-10-05T04:46:37.079Z,3.67
2022-10-05T04:49:28.827Z,3.57
2022-10-05T04:52:06.676Z,3.63
2022-10-05T04:54:39.769Z,3.83
2022-10-05T04:57:23.852Z,3.93
2022-10-05T05:00:02.988Z,3.90
2022-10-05T05:03:00.697Z,4.20
2022-10-05T05:08:41.881Z,4.10
2022-10-05T05:11:44.200Z,3.60
2022-10-05T05:14:31.095Z,3.87
2022-10-05T05:17:32.401Z,3.80
2022-10-05T05:20:18.591Z,3.97
2022-10-05T05:23:14.816Z,3.83
2022-10-05T05:26:09.525Z,3.73
2022-10-05T05:28:41.840Z,4.03
2022-10-05T05:31:27.394Z,4.13
2022-10-05T05:34:05.415Z,3.60
2022-10-05T05:36:49.656Z,3.80
2022-10-05T05:39:32.607Z,3.80
2022-10-05T05:42:01.663Z,3.57
2022-10-05T05:44:38.597Z,3.27
2022-10-05T05:47:22.135Z,3.40
2022-10-05T05:50:06.956Z,3.73
2022-10-05T05:53:18.050Z,3.40
2022-10-05T05:56:00.779Z,4.00
2022-10-05T05:58:56.458Z,4.23
2022-10-05T06:01:46.161Z,3.27
2022-10-05T06:04:22.686Z,3.93
2022-10-05T06:06:53.626Z,3.87
2022-10-05T06:09:39.496Z,3.70
2022-10-05T06:12:09.080Z,4.10
2022-10-05T06:14:50.270Z,4.00
2022-10-05T06:17:27.336Z,3.87
2022-10-05T06:20:02.511Z,4.47
2022-10-05T06:22:41.058Z,5.70
2022-10-05T06:25:17.175Z,3.70
2022-10-05T06:28:13.074Z,4.07
2022-10-05T06:31:21.005Z,3.60
2022-10-05T06:34:14.870Z,4.33
2022-10-05T06:36:51.340Z,4.30
2022-10-05T06:39:55.449Z,4.60
2022-10-05T06:42:41.521Z,4.13
2022-10-05T06:45:29.544Z,4.23
2022-10-05T06:48:35.187Z,4.70
2022-10-05T06:51:19.892Z,4.67
2022-10-05T06:54:04.224Z,4.63
2022-10-05T06:56:54.186Z,4.77
2022-10-05T06:59:29.407Z,4.83
2022-10-05T07:02:12.087Z,4.73
2022-10-05T07:04:59.285Z,4.50
2022-10-05T07:07:38.311Z,4.50
2022-10-05T07:10:27.295Z,5.17
2022-10-05T07:13:07.672Z,4.83
2022-10-05T07:16:16.018Z,5.53
2022-10-05T07:18:55.488Z,4.60
2022-10-05T07:21:36.046Z,5.33
2022-10-05T07:24:24.076Z,4.67
2022-10-05T07:27:19.236Z,4.93
2022-10-05T07:29:50.235Z,5.07
2022-10-05T07:32:50.641Z,5.13
2022-10-05T07:35:43.893Z,4.63
2022-10-05T07:38:35.868Z,4.43
2022-10-05T07:41:07.750Z,4.60
2022-10-05T07:44:05.778Z,4.63
2022-10-05T07:46:58.737Z,4.10
2022-10-05T07:49:52.511Z,4.70
2022-10-05T07:52:32.330Z,4.50
2022-10-05T07:55:37.576Z,5.20
2022-10-05T07:58:28.795Z,4.45
2022-10-05T08:01:38.210Z,5.45
2022-10-05T08:04:41.795Z,5.18
2022-10-05T08:07:29.449Z,5.18
2022-10-05T08:10:21.095Z,5.25
2022-10-05T08:13:39.430Z,5.15
2022-10-05T08:16:13.391Z,5.80
2022-10-05T08:19:03.651Z,5.75
2022-10-05T08:21:48.184Z,5.38
2022-10-05T08:25:00.703Z,5.50
2022-10-05T08:27:49.294Z,5.63
2022-10-05T08:30:18.019Z,6.15
2022-10-05T08:33:10.014Z,5.93
2022-10-05T08:35:51.665Z,5.95
2022-10-05T08:38:26.037Z,6.22
2022-10-05T08:41:32.571Z,6.10
2022-10-05T08:44:55.951Z,6.10
2022-10-05T08:47:47.342Z,5.50
2022-10-05T08:50:48.676Z,6.22
2022-10-05T08:53:53.157Z,5.60
2022-10-05T08:56:53.301Z,5.47
2022-10-05T08:59:41.775Z,5.32
2022-10-05T09:02:38.457Z,5.60
2022-10-05T09:05:28.282Z,5.47
2022-10-05T09:08:52.296Z,5.30
2022-10-05T09:11:59.410Z,5.53
2022-10-05T09:15:26.798Z,5.30
2022-10-05T09:18:43.629Z,4.85
2022-10-05T09:22:09.486Z,4.43
2022-10-05T09:25:01.345Z,4.72
2022-10-05T09:27:39.854Z,4.13
2022-10-05T09:30:33.804Z,5.20
2022-10-05T09:33:29.881Z,4.93
2022-10-05T09:36:39.456Z,5.05
2022-10-05T09:39:45.378Z,4.55
2022-10-05T09:42:39.516Z,4.60
2022-10-05T09:45:48.000Z,4.82
2022-10-05T09:48:52.835Z,4.45
2022-10-05T09:51:39.036Z,4.35
2022-10-05T09:54:27.916Z,4.10
2022-10-05T09:57:31.925Z,4.88
2022-10-05T10:00:16.995Z,4.30
2022-10-05T10:03:08.376Z,4.18
2022-10-05T10:06:06.950Z,4.32
2022-10-05T10:09:20.682Z,3.95
2022-10-05T10:12:16.427Z,3.50
2022-10-05T10:15:32.720Z,3.75
2022-10-05T10:18:43.437Z,4.10
2022-10-05T10:21:45.900Z,4.15
2022-10-05T10:24:22.449Z,4.32
2022-10-05T10:27:30.620Z,4.68
2022-10-05T10:30:22.478Z,4.05
2022-10-05T10:33:29.701Z,3.88
2022-10-05T10:36:23.744Z,3.63
2022-10-05T10:39:25.904Z,3.83
2022-10-05T10:42:33.561Z,3.95
2022-10-05T10:45:17.886Z,4.18
2022-10-05T10:47:48.780Z,3.72
2022-10-05T10:50:36.792Z,3.90
2022-10-05T10:54:04.276Z,3.60
2022-10-05T10:56:53.011Z,3.40
2022-10-05T11:00:00.276Z,4.03
2022-10-05T11:03:08.903Z,3.38
2022-10-05T11:06:14.186Z,3.70
2022-10-05T11:09:18.006Z,4.07
2022-10-05T11:12:21.713Z,3.42
2022-10-05T11:15:28.856Z,3.05
2022-10-05T11:21:14.675Z,3.53
2022-10-05T11:24:22.845Z,3.53
2022-10-05T11:27:11.420Z,3.53
2022-10-05T11:30:03.591Z,3.95
2022-10-05T11:33:11.711Z,3.33
2022-10-05T11:36:20.460Z,3.33
2022-10-05T11:39:13.557Z,3.17
2022-10-05T11:41:59.414Z,3.40
2022-10-05T11:48:11.611Z,3.58
2022-10-05T11:51:11.219Z,3.65
2022-10-05T11:55:06.071Z,3.42
2022-10-05T11:57:57.275Z,3.17
2022-10-05T12:00:33.871Z,3.20
2022-10-05T12:03:45.939Z,3.45
2022-10-05T12:06:51.447Z,3.03
2022-10-05T12:10:07.442Z,2.78
2022-10-05T12:13:02.487Z,3.10
2022-10-05T12:16:13.334Z,3.13
2022-10-05T12:18:52.495Z,3.38
2022-10-05T12:21:41.577Z,3.13
2022-10-05T12:24:29.312Z,3.25
2022-10-05T12:27:03.730Z,3.40
2022-10-05T12:29:54.655Z,2.97
2022-10-05T12:33:19.725Z,3.50
2022-10-05T12:36:24.711Z,3.05
2022-10-05T12:38:57.031Z,3.35
2022-10-05T12:41:51.901Z,2.92
2022-10-05T12:44:57.739Z,2.90
2022-10-05T12:47:53.947Z,3.22
2022-10-05T12:50:58.535Z,3.13
2022-10-05T12:53:59.859Z,2.50
2022-10-05T12:56:56.411Z,3.00
2022-10-05T12:59:44.335Z,3.28
2022-10-05T13:02:31.162Z,3.50
2022-10-05T13:05:19.050Z,3.00
2022-10-05T13:08:21.161Z,3.40
2022-10-05T13:11:04.606Z,3.30
2022-10-05T13:14:30.747Z,3.47
2022-10-05T13:17:20.166Z,3.17
2022-10-05T13:20:14.015Z,3.10
2022-10-05T13:22:57.447Z,3.35
2022-10-05T13:25:32.871Z,3.53
2022-10-05T13:28:11.007Z,3.13
2022-10-05T13:30:42.231Z,3.88
2022-10-05T13:33:36.349Z,3.50
2022-10-05T13:36:18.052Z,4.40
2022-10-05T13:39:28.177Z,4.20
2022-10-05T13:42:13.527Z,3.90
2022-10-05T13:45:27.597Z,4.05
2022-10-05T13:48:43.961Z,4.15
2022-10-05T13:51:54.176Z,3.90
2022-10-05T13:54:32.360Z,3.42
2022-10-05T13:57:48.071Z,3.50
2022-10-05T14:00:43.982Z,4.57
2022-10-05T14:04:18.235Z,4.00
2022-10-05T14:06:58.267Z,3.40
2022-10-05T14:09:36.701Z,3.67
2022-10-05T14:12:13.715Z,3.60
2022-10-05T14:15:01.113Z,3.50
2022-10-05T14:17:33.926Z,3.20
2022-10-05T14:20:28.934Z,3.13
2022-10-05T14:23:25.010Z,3.20
2022-10-05T14:25:55.141Z,3.78
2022-10-05T14:28:37.322Z,3.60
2022-10-05T14:31:17.676Z,3.20
2022-10-05T14:33:56.091Z,3.35
2022-10-05T14:36:55.766Z,3.60
2022-10-05T14:39:29.491Z,3.60
2022-10-05T14:42:12.986Z,3.70
2022-10-05T14:44:43.405Z,3.65
2022-10-05T14:47:27.695Z,3.40
2022-10-05T14:50:33.734Z,3.88
2022-10-05T14:53:22.607Z,3.92
2022-10-05T14:56:38.536Z,3.50
2022-10-05T14:59:31.050Z,3.63
2022-10-05T15:02:40.473Z,3.72
2022-10-05T15:05:51.649Z,4.15
2022-10-05T15:08:48.202Z,3.95
2022-10-05T15:11:41.411Z,3.95
2022-10-05T15:14:30.045Z,3.70
2022-10-05T15:17:15.225Z,4.10
2022-10-05T15:20:18.163Z,4.38
2022-10-05T15:23:15.466Z,3.97
2022-10-05T15:26:13.856Z,4.03
2022-10-05T15:29:20.960Z,3.67
2022-10-05T15:32:17.735Z,3.70
2022-10-05T15:35:36.515Z,4.60
2022-10-05T15:38:26.811Z,4.57
2022-10-05T15:41:20.233Z,3.83
2022-10-05T15:44:11.250Z,3.85
2022-10-05T15:46:50.425Z,4.22
2022-10-05T15:49:38.555Z,3.88
2022-10-05T15:52:40.214Z,3.90
2022-10-05T15:55:36.525Z,3.60
2022-10-05T15:58:44.599Z,3.95
2022-10-05T16:01:33.576Z,4.13
2022-10-05T16:04:37.400Z,4.03
2022-10-05T16:07:38.616Z,4.57
2022-10-05T16:10:27.846Z,3.25
2022-10-05T16:13:39.252Z,4.55
2022-10-05T16:16:36.419Z,4.70
2022-10-05T16:19:48.792Z,4.53
2022-10-05T16:22:55.741Z,4.93
2022-10-05T16:25:44.765Z,5.00
2022-10-05T16:28:53.168Z,5.90
2022-10-05T16:31:34.075Z,5.38
2022-10-05T16:34:53.255Z,4.55
2022-10-05T16:38:07.501Z,4.68
2022-10-05T16:41:14.005Z,4.28
2022-10-05T16:43:57.690Z,6.07
2022-10-05T16:46:57.925Z,6.40
2022-10-05T16:49:55.621Z,6.22
2022-10-05T16:52:28.566Z,6.05
2022-10-05T16:55:03.410Z,5.53
2022-10-05T16:57:47.191Z,5.95
2022-10-05T17:01:06.307Z,6.40
2022-10-05T17:04:15.979Z,6.28
2022-10-05T17:07:11.865Z,6.22
2022-10-05T17:10:17.947Z,5.47
2022-10-05T17:13:30.091Z,5.40
2022-10-05T17:16:22.340Z,4.90
2022-10-05T17:19:31.289Z,4.97
2022-10-05T17:22:34.685Z,5.30
2022-10-05T17:25:22.685Z,5.43
2022-10-05T17:28:27.896Z,5.30
2022-10-05T17:31:24.116Z,6.10
2022-10-05T17:34:15.205Z,5.30
2022-10-05T17:36:57.880Z,5.73
2022-10-05T17:39:51.265Z,5.43
2022-10-05T17:42:35.027Z,5.17
2022-10-05T17:45:23.162Z,5.10
2022-10-05T17:48:05.416Z,5.63
2022-10-05T17:51:11.285Z,5.73
2022-10-05T17:54:11.281Z,5.37
2022-10-05T17:57:06.416Z,5.20
2022-10-05T18:00:14.050Z,5.23
2022-10-05T18:02:43.165Z,5.23
2022-10-05T18:05:16.354Z,5.80
2022-10-05T18:08:08.201Z,6.00
2022-10-05T18:10:41.248Z,5.40
2022-10-05T18:13:47.733Z,5.53
2022-10-05T18:16:57.710Z,5.77
2022-10-05T18:19:30.310Z,5.50
2022-10-05T18:22:17.605Z,5.50
2022-10-05T18:25:33.001Z,5.67
2022-10-05T18:28:40.422Z,6.30
2022-10-05T18:31:38.871Z,5.50
2022-10-05T18:34:39.036Z,5.57
2022-10-05T18:37:35.225Z,4.90
2022-10-05T18:40:44.375Z,5.07
2022-10-05T18:43:36.665Z,5.50
2022-10-05T18:46:25.872Z,4.90
2022-10-05T18:49:37.887Z,5.10
2022-10-05T18:52:32.814Z,5.50
2022-10-05T18:55:32.966Z,5.57
2022-10-05T18:58:37.429Z,5.57
2022-10-05T19:01:30.709Z,5.27
2022-10-05T19:04:50.169Z,5.67
2022-10-05T19:07:59.213Z,6.30
2022-10-05T19:10:48.126Z,5.00
2022-10-05T19:13:37.460Z,5.33
2022-10-05T19:16:35.991Z,5.13
2022-10-05T19:19:33.809Z,5.53
2022-10-05T19:22:47.151Z,5.60
2022-10-05T19:25:40.920Z,5.87
2022-10-05T19:28:35.966Z,5.37
2022-10-05T19:31:38.533Z,6.10
2022-10-05T19:34:43.415Z,6.00
2022-10-05T19:37:50.378Z,5.87
2022-10-05T19:41:09.481Z,5.70
2022-10-05T19:44:14.060Z,5.80
2022-10-05T19:47:09.481Z,6.00
2022-10-05T19:49:56.568Z,5.27
2022-10-05T19:52:41.471Z,5.90
2022-10-05T19:55:24.369Z,5.90
2022-10-05T19:57:56.006Z,6.10
2022-10-05T20:00:39.961Z,6.10
2022-10-05T20:03:30.185Z,6.50
2022-10-05T20:06:15.187Z,6.00
2022-10-05T20:08:48.467Z,5.90
2022-10-05T20:11:36.596Z,5.90
2022-10-05T20:14:15.290Z,5.10
2022-10-05T20:17:01.870Z,5.87
2022-10-05T20:19:47.649Z,5.37
2022-10-05T20:22:40.000Z,5.60
2022-10-05T20:25:32.492Z,5.50
2022-10-05T20:27:59.802Z,5.90
2022-10-05T20:30:36.770Z,5.70
2022-10-05T20:33:13.489Z,6.03
2022-10-05T20:35:45.730Z,6.03
2022-10-05T20:38:15.486Z,5.40
2022-10-05T20:40:43.661Z,5.83
2022-10-05T20:43:13.871Z,5.67
2022-10-05T20:45:44.113Z,5.30
2022-10-05T20:48:16.910Z,5.40
2022-10-05T20:50:43.900Z,5.60
2022-10-05T20:53:13.765Z,5.40
2022-10-05T20:55:41.368Z,5.87
2022-10-05T20:58:18.889Z,5.20
2022-10-05T21:01:07.498Z,5.80
2022-10-05T21:03:38.582Z,5.53
2022-10-05T21:06:15.788Z,5.07
2022-10-05T21:08:50.315Z,5.47
2022-10-05T21:11:18.485Z,5.40
2022-10-05T21:13:47.186Z,6.17
2022-10-05T21:16:19.073Z,5.87
2022-10-05T21:18:56.466Z,5.77
2022-10-05T21:21:35.177Z,5.97
2022-10-05T21:24:05.056Z,5.60
2022-10-05T21:26:34.281Z,5.67
2022-10-05T21:29:07.798Z,5.87
2022-10-05T21:31:49.822Z,5.97
2022-10-05T21:34:21.261Z,6.27
2022-10-05T21:36:50.722Z,6.30
2022-10-05T21:39:20.521Z,5.77
2022-10-05T21:41:49.781Z,7.23
2022-10-05T21:44:19.480Z,6.40
2022-10-05T21:46:52.782Z,6.00
2022-10-05T21:49:20.276Z,5.70
2022-10-05T21:51:48.887Z,6.07
2022-10-05T21:54:20.766Z,5.80
2022-10-05T21:57:05.454Z,6.20
2022-10-05T21:59:36.671Z,6.00
2022-10-05T22:02:13.734Z,6.43
2022-10-05T22:04:43.050Z,6.10
2022-10-05T22:07:19.712Z,6.87
2022-10-05T22:09:52.094Z,6.60
2022-10-05T22:12:22.007Z,6.43
2022-10-05T22:14:50.375Z,6.73
2022-10-05T22:17:26.195Z,6.87
2022-10-05T22:19:57.015Z,6.57
2022-10-05T22:22:28.513Z,6.10
2022-10-05T22:25:04.716Z,6.60
2022-10-05T22:27:37.505Z,6.57
2022-10-05T22:30:09.946Z,6.83
2022-10-05T22:32:39.305Z,6.37
2022-10-05T22:35:11.504Z,6.87
2022-10-05T22:37:39.471Z,6.90
2022-10-05T22:40:08.952Z,7.13
2022-10-05T22:42:41.661Z,6.60
2022-10-05T22:45:10.127Z,7.17
2022-10-05T22:47:47.247Z,7.47
2022-10-05T22:50:16.044Z,7.70
2022-10-05T22:52:45.321Z,7.37
2022-10-05T22:55:21.546Z,7.20
2022-10-05T22:57:50.170Z,6.70
2022-10-05T23:00:17.960Z,7.40
2022-10-05T23:02:50.725Z,6.93
2022-10-05T23:05:19.307Z,6.70
2022-10-05T23:07:49.205Z,6.83
2022-10-05T23:10:19.641Z,7.40
2022-10-05T23:13:01.200Z,7.60
2022-10-05T23:15:30.310Z,7.70
2022-10-05T23:18:08.695Z,7.43
2022-10-05T23:20:40.465Z,6.97
2022-10-05T23:23:10.932Z,7.47
2022-10-05T23:25:39.134Z,7.93
2022-10-05T23:28:10.166Z,7.00
2022-10-05T23:30:40.724Z,7.17
2022-10-05T23:33:10.575Z,7.07
2022-10-05T23:35:41.296Z,7.17
2022-10-05T23:38:10.605Z,6.70
2022-10-05T23:40:38.769Z,7.03
2022-10-05T23:43:16.837Z,6.47
2022-10-05T23:45:51.243Z,6.33
2022-10-05T23:48:30.788Z,6.87
2022-10-05T23:51:00.869Z,6.63
2022-10-05T23:53:39.241Z,6.77
2022-10-05T23:56:07.815Z,6.50
2022-10-05T23:58:36.215Z,6.20
